Time;durP1;ratioP1;P1;durP2;ratioP2;P2;SDS_P1;SDS_P2;PMS_P1;PMS_P2;Temp;Humidity;BMP_temperature;BMP_pressure;BME280_temperature;BME280_humidity;BME280_pressure;Samples;Min_cycle;Max_cycle;Signal;HPM_P1;HPM_P2
2023/08/20 00:01:57;;;;;;;16.33;11.07;;;21.50;99.90;;;;;;5076347;28;20099;-84
2023/08/20 00:04:26;;;;;;;20.73;11.77;;;21.50;99.90;;;;;;5078165;28;20032;-85
2023/08/20 00:06:52;;;;;;;13.90;11.45;;;21.50;99.90;;;;;;5062823;28;20406;-84
2023/08/20 00:09:17;;;;;;;18.20;12.32;;;21.50;99.90;;;;;;5077639;28;20032;-85
2023/08/20 00:11:43;;;;;;;15.75;11.40;;;21.60;99.90;;;;;;5082605;28;20028;-85
2023/08/20 00:14:16;;;;;;;18.15;12.23;;;21.60;99.90;;;;;;5081522;28;20036;-85
2023/08/20 00:16:42;;;;;;;14.40;11.57;;;21.60;99.90;;;;;;5078470;28;20495;-85
2023/08/20 00:19:18;;;;;;;17.42;11.02;;;21.60;99.90;;;;;;5059779;28;20577;-85
2023/08/20 00:21:44;;;;;;;17.50;12.07;;;21.60;99.90;;;;;;5063434;28;20028;-85
2023/08/20 00:24:11;;;;;;;19.70;11.65;;;21.60;99.90;;;;;;5060784;28;20031;-85
2023/08/20 00:26:38;;;;;;;24.90;12.18;;;21.70;99.90;;;;;;5066184;28;20024;-85
2023/08/20 00:29:03;;;;;;;15.57;11.60;;;21.70;99.90;;;;;;5062494;28;20139;-85
2023/08/20 00:31:29;;;;;;;19.30;11.88;;;21.80;99.90;;;;;;5062197;28;20059;-85
2023/08/20 00:33:55;;;;;;;21.13;11.65;;;21.80;99.90;;;;;;5060980;28;20025;-85
2023/08/20 00:36:20;;;;;;;15.18;11.80;;;21.80;99.90;;;;;;5059536;28;20052;-85
2023/08/20 00:38:46;;;;;;;19.45;12.02;;;21.80;99.90;;;;;;5062142;28;20031;-85
2023/08/20 00:41:12;;;;;;;15.40;11.38;;;21.80;99.90;;;;;;5055679;28;20021;-84
2023/08/20 00:43:37;;;;;;;28.15;11.73;;;21.80;99.90;;;;;;5071252;28;20484;-85
2023/08/20 00:46:05;;;;;;;17.40;11.43;;;21.80;99.90;;;;;;5061055;28;20059;-84
2023/08/20 00:48:32;;;;;;;15.93;11.88;;;21.80;99.90;;;;;;5059188;28;20039;-84
2023/08/20 00:50:58;;;;;;;17.73;12.40;;;21.80;99.90;;;;;;5079006;28;20099;-85
2023/08/20 00:53:24;;;;;;;14.48;11.50;;;21.80;99.90;;;;;;5056674;28;20113;-84
2023/08/20 00:55:50;;;;;;;17.45;11.55;;;21.80;99.90;;;;;;5079750;28;20120;-85
2023/08/20 00:58:16;;;;;;;19.63;11.82;;;21.80;99.90;;;;;;5076699;28;20032;-85
2023/08/20 01:00:41;;;;;;;16.15;11.07;;;21.70;99.90;;;;;;5058630;28;20029;-85
2023/08/20 01:03:07;;;;;;;20.38;12.05;;;21.70;99.90;;;;;;5061289;28;20020;-84
2023/08/20 01:05:46;;;;;;;19.65;11.45;;;21.70;99.90;;;;;;5077378;28;20055;-85
2023/08/20 01:08:37;;;;;;;23.02;12.07;;;21.60;99.90;;;;;;5079240;28;20394;-85
2023/08/20 01:11:10;;;;;;;17.77;11.85;;;21.60;99.90;;;;;;5066589;28;20383;-85
2023/08/20 01:13:35;;;;;;;24.90;12.48;;;21.50;99.90;;;;;;5064180;28;20052;-85
2023/08/20 01:16:01;;;;;;;18.83;11.57;;;21.50;99.90;;;;;;5083166;28;20048;-85
2023/08/20 01:18:27;;;;;;;21.05;12.68;;;21.50;99.90;;;;;;5083120;28;20075;-85
2023/08/20 01:21:02;;;;;;;16.90;12.00;;;21.40;99.90;;;;;;5056957;28;20422;-85
2023/08/20 01:23:50;;;;;;;19.23;11.85;;;21.40;99.90;;;;;;5061166;28;20030;-85
2023/08/20 01:26:39;;;;;;;18.98;11.75;;;21.40;99.90;;;;;;5067006;28;20106;-85
2023/08/20 01:29:12;;;;;;;20.13;12.48;;;21.40;99.90;;;;;;5072973;28;20382;-85
2023/08/20 01:31:38;;;;;;;17.00;11.70;;;21.40;99.90;;;;;;5079034;28;20119;-85
2023/08/20 01:34:04;;;;;;;21.40;13.00;;;21.40;99.90;;;;;;5082270;28;20498;-84
2023/08/20 01:36:30;;;;;;;20.05;13.32;;;21.30;99.90;;;;;;5064024;28;20442;-84
2023/08/20 01:39:29;;;;;;;20.13;12.73;;;21.20;99.90;;;;;;5067452;28;20039;-84
2023/08/20 01:41:55;;;;;;;27.27;13.35;;;21.20;99.90;;;;;;5069573;28;20104;-85
2023/08/20 01:44:21;;;;;;;18.38;12.50;;;21.10;99.90;;;;;;5060289;28;20033;-84
2023/08/20 01:46:46;;;;;;;17.73;12.85;;;21.10;99.90;;;;;;5084693;28;20132;-84
2023/08/20 01:49:12;;;;;;;22.38;13.07;;;21.00;99.90;;;;;;5078351;28;20451;-85
2023/08/20 01:51:38;;;;;;;19.45;13.45;;;21.00;99.90;;;;;;5070283;28;20475;-85
2023/08/20 01:54:05;;;;;;;17.00;13.63;;;21.00;99.90;;;;;;5062933;28;20074;-84
2023/08/20 01:56:30;;;;;;;19.13;13.70;;;20.90;99.90;;;;;;5081694;28;20033;-85
2023/08/20 01:58:56;;;;;;;19.38;14.63;;;20.80;99.90;;;;;;5080400;28;20020;-85
2023/08/20 02:01:22;;;;;;;23.23;14.48;;;20.80;99.90;;;;;;5067684;28;20028;-85
2023/08/20 02:04:12;;;;;;;19.55;14.18;;;20.90;99.90;;;;;;5084494;28;20484;-85
2023/08/20 02:06:38;;;;;;;21.13;14.73;;;20.90;99.90;;;;;;5064456;28;20030;-85
2023/08/20 02:09:05;;;;;;;21.83;14.73;;;20.80;99.90;;;;;;5074106;28;20021;-84
2023/08/20 02:11:35;;;;;;;21.58;13.70;;;20.70;99.90;;;;;;5065740;28;20498;-85
2023/08/20 02:14:01;;;;;;;19.58;13.50;;;20.60;99.90;;;;;;5076773;28;20111;-84
2023/08/20 02:16:27;;;;;;;18.75;14.13;;;20.50;99.90;;;;;;5067471;28;20016;-84
2023/08/20 02:18:53;;;;;;;21.25;13.85;;;20.40;99.90;;;;;;5079138;28;20032;-84
2023/08/20 02:21:18;;;;;;;21.38;14.63;;;20.30;99.90;;;;;;5080417;28;20048;-85
2023/08/20 02:23:44;;;;;;;19.05;14.43;;;20.20;99.90;;;;;;5061708;28;20036;-84
2023/08/20 02:26:10;;;;;;;21.70;14.95;;;20.10;99.90;;;;;;5066137;28;20040;-84
2023/08/20 02:28:35;;;;;;;19.73;15.80;;;20.00;99.90;;;;;;5059085;28;20464;-85
2023/08/20 02:31:04;;;;;;;28.40;15.95;;;20.00;99.90;;;;;;5057281;28;20130;-85
2023/08/20 02:33:29;;;;;;;18.65;14.98;;;19.90;99.90;;;;;;5063311;28;20044;-84
2023/08/20 02:36:20;;;;;;;21.90;16.17;;;19.90;99.90;;;;;;5062379;28;20609;-85
2023/08/20 02:38:46;;;;;;;23.20;15.20;;;19.90;99.90;;;;;;5066767;28;20375;-84
2023/08/20 02:41:12;;;;;;;22.75;16.92;;;19.90;99.90;;;;;;5062908;28;20093;-85
2023/08/20 02:43:38;;;;;;;21.90;15.40;;;19.80;99.90;;;;;;5059489;28;20029;-84
2023/08/20 02:46:03;;;;;;;19.95;16.23;;;19.70;99.90;;;;;;5081500;28;20372;-85
2023/08/20 02:48:30;;;;;;;21.33;15.85;;;19.70;99.90;;;;;;5060456;28;20021;-85
2023/08/20 02:50:56;;;;;;;18.30;14.82;;;19.70;99.90;;;;;;5067270;28;20059;-85
2023/08/20 02:53:22;;;;;;;21.77;15.73;;;19.70;99.90;;;;;;5079143;28;20032;-85
2023/08/20 02:55:48;;;;;;;23.85;16.05;;;19.60;99.90;;;;;;5077813;28;20028;-85
2023/08/20 02:58:14;;;;;;;18.05;14.85;;;19.60;99.90;;;;;;5081018;28;20475;-85
2023/08/20 03:00:43;;;;;;;20.23;14.95;;;19.60;99.90;;;;;;5064431;28;20031;-84
2023/08/20 03:03:09;;;;;;;22.27;16.58;;;19.50;99.90;;;;;;5065546;28;20419;-84
2023/08/20 03:05:37;;;;;;;26.42;16.15;;;19.50;99.90;;;;;;5082102;28;20028;-84
2023/08/20 03:08:06;;;;;;;20.02;15.02;;;19.50;99.90;;;;;;5062863;28;20028;-85
2023/08/20 03:10:32;;;;;;;23.77;16.52;;;19.50;99.90;;;;;;5077990;28;20024;-84
2023/08/20 03:12:59;;;;;;;23.73;16.52;;;19.40;99.90;;;;;;5066333;28;20027;-85
2023/08/20 03:15:25;;;;;;;24.40;16.35;;;19.40;99.90;;;;;;5062251;28;20058;-85
2023/08/20 03:17:54;;;;;;;20.80;15.90;;;19.30;99.90;;;;;;5068686;28;20036;-85
2023/08/20 03:20:19;;;;;;;23.75;18.05;;;19.30;99.90;;;;;;5060236;28;20017;-84
2023/08/20 03:22:45;;;;;;;21.08;16.73;;;19.30;99.90;;;;;;5078626;28;20386;-85
2023/08/20 03:25:11;;;;;;;23.90;17.95;;;19.30;99.90;;;;;;5065613;28;20032;-84
2023/08/20 03:27:37;;;;;;;25.85;17.70;;;19.30;99.90;;;;;;5080070;28;20154;-84
2023/08/20 03:30:03;;;;;;;23.15;17.30;;;19.20;99.90;;;;;;5059369;28;20491;-84
2023/08/20 03:32:31;;;;;;;30.77;18.17;;;19.30;99.90;;;;;;5081375;28;20032;-85
2023/08/20 03:34:58;;;;;;;23.40;17.63;;;19.20;99.90;;;;;;5077555;28;20024;-84
2023/08/20 03:37:51;;;;;;;27.77;18.70;;;19.20;99.90;;;;;;5065718;28;20076;-85
2023/08/20 03:40:18;;;;;;;24.15;18.95;;;19.30;99.90;;;;;;5060014;28;20024;-85
2023/08/20 03:42:44;;;;;;;29.45;19.35;;;19.30;99.90;;;;;;5095183;28;20125;-85
2023/08/20 03:45:09;;;;;;;25.45;16.90;;;19.30;99.90;;;;;;5059595;28;20128;-85
2023/08/20 03:47:36;;;;;;;30.90;19.77;;;19.30;99.90;;;;;;5063851;28;20032;-84
2023/08/20 03:50:11;;;;;;;24.08;19.08;;;19.30;99.90;;;;;;5078508;28;20036;-84
2023/08/20 03:52:37;;;;;;;28.75;19.60;;;19.20;99.90;;;;;;5061890;28;20078;-85
2023/08/20 03:55:03;;;;;;;27.05;19.35;;;19.30;99.90;;;;;;5062648;28;20428;-85
2023/08/20 03:57:29;;;;;;;27.92;18.02;;;19.30;99.90;;;;;;5076845;28;20054;-84
2023/08/20 03:59:54;;;;;;;27.02;21.13;;;19.30;99.90;;;;;;5079962;28;20024;-85
2023/08/20 04:02:20;;;;;;;25.02;18.40;;;19.30;99.90;;;;;;5062862;28;20487;-84
2023/08/20 04:04:46;;;;;;;26.42;19.05;;;19.20;99.90;;;;;;5059277;28;20418;-84
2023/08/20 04:07:12;;;;;;;30.38;19.70;;;19.20;99.90;;;;;;5064879;28;20032;-85
2023/08/20 04:09:38;;;;;;;28.23;19.10;;;19.30;99.90;;;;;;5059305;28;20361;-85
2023/08/20 04:12:37;;;;;;;25.17;18.58;;;19.20;99.90;;;;;;5083154;28;20031;-84
2023/08/20 04:15:04;;;;;;;29.02;20.45;;;19.20;99.90;;;;;;5077158;28;20366;-85
2023/08/20 04:17:29;;;;;;;25.52;19.35;;;19.30;99.90;;;;;;5057660;28;20059;-84
2023/08/20 04:19:55;;;;;;;26.73;20.02;;;19.30;99.90;;;;;;5083968;28;20059;-85
2023/08/20 04:22:21;;;;;;;30.30;20.35;;;19.30;99.90;;;;;;5055815;28;20047;-84
2023/08/20 04:24:47;;;;;;;28.88;19.50;;;19.30;99.90;;;;;;5060043;28;20036;-86
2023/08/20 04:27:12;;;;;;;32.85;21.60;;;19.30;99.90;;;;;;5064542;28;20028;-86
2023/08/20 04:29:41;;;;;;;34.10;20.67;;;19.30;99.90;;;;;;5080955;28;20544;-86
2023/08/20 04:32:07;;;;;;;26.15;21.23;;;19.30;99.90;;;;;;5061012;28;20029;-86
2023/08/20 04:34:33;;;;;;;29.52;20.17;;;19.30;99.90;;;;;;5064503;28;20155;-85
2023/08/20 04:36:58;;;;;;;32.25;20.05;;;19.40;99.90;;;;;;5061961;28;20074;-86
2023/08/20 04:39:24;;;;;;;29.40;19.38;;;19.40;99.90;;;;;;5076995;28;20025;-86
2023/08/20 04:41:52;;;;;;;30.33;19.30;;;19.40;99.90;;;;;;5081568;28;20031;-86
2023/08/20 04:44:19;;;;;;;25.88;17.83;;;19.40;99.90;;;;;;5061818;28;20430;-86
2023/08/20 04:46:46;;;;;;;23.33;18.77;;;19.40;99.90;;;;;;5065964;28;20025;-86
2023/08/20 04:49:13;;;;;;;23.10;17.38;;;19.40;99.90;;;;;;5064040;28;20028;-86
2023/08/20 04:51:38;;;;;;;29.42;20.23;;;19.40;99.90;;;;;;5075077;28;20058;-86
2023/08/20 04:54:04;;;;;;;23.98;18.40;;;19.40;99.90;;;;;;5066746;28;20035;-86
2023/08/20 04:56:30;;;;;;;22.65;17.40;;;19.40;99.90;;;;;;5060244;28;20059;-87
2023/08/20 04:58:59;;;;;;;21.63;17.13;;;19.40;99.90;;;;;;5060659;28;20021;-86
2023/08/20 05:01:44;;;;;;;29.20;18.80;;;19.40;99.90;;;;;;5081346;28;20028;-86
2023/08/20 05:04:11;;;;;;;31.80;17.33;;;19.40;99.90;;;;;;5059448;28;20526;-87
2023/08/20 05:06:37;;;;;;;27.55;18.35;;;19.40;99.90;;;;;;5065002;28;20028;-85
2023/08/20 05:09:03;;;;;;;24.15;17.75;;;19.40;99.90;;;;;;5061704;28;20016;-86
2023/08/20 05:11:31;;;;;;;20.45;16.00;;;19.40;99.90;;;;;;5061331;28;20040;-86
2023/08/20 05:13:57;;;;;;;18.58;16.02;;;19.40;99.90;;;;;;5058791;28;20025;-85
2023/08/20 05:16:23;;;;;;;21.17;16.98;;;19.50;99.90;;;;;;5063865;28;20024;-86
2023/08/20 05:18:50;;;;;;;20.23;15.57;;;19.70;99.90;;;;;;5077562;28;20031;-86
2023/08/20 05:21:15;;;;;;;28.08;16.67;;;19.90;99.90;;;;;;5066423;28;20537;-86
2023/08/20 05:23:41;;;;;;;20.73;14.48;;;20.10;99.90;;;;;;5051343;28;20053;-86
2023/08/20 05:26:07;;;;;;;19.38;13.55;;;20.30;99.90;;;;;;5066574;28;20033;-87
2023/08/20 05:28:34;;;;;;;16.58;12.88;;;20.50;99.90;;;;;;5056177;28;20028;-87
2023/08/20 05:31:00;;;;;;;15.73;11.43;;;20.70;99.90;;;;;;5055929;28;20036;-87
2023/08/20 05:33:26;;;;;;;15.68;11.80;;;20.90;99.90;;;;;;5075424;28;20044;-87
2023/08/20 05:35:53;;;;;;;17.80;11.23;;;21.00;99.90;;;;;;5056050;28;20032;-87
2023/08/20 05:38:20;;;;;;;13.65;10.40;;;21.20;99.90;;;;;;5064238;28;20078;-87
2023/08/20 05:40:47;;;;;;;16.75;11.48;;;21.30;99.90;;;;;;5058293;28;20024;-87
2023/08/20 05:43:13;;;;;;;14.88;10.63;;;21.50;99.90;;;;;;5072435;28;20035;-87
2023/08/20 05:45:39;;;;;;;11.88;9.32;;;21.60;99.90;;;;;;5057314;28;20059;-87
2023/08/20 05:48:07;;;;;;;13.23;8.90;;;21.70;99.90;;;;;;5074273;28;20074;-87
2023/08/20 05:50:32;;;;;;;17.67;9.80;;;21.70;99.90;;;;;;5059456;28;20028;-87
2023/08/20 05:52:58;;;;;;;11.20;9.35;;;21.70;99.90;;;;;;5072270;28;20383;-87
2023/08/20 05:55:24;;;;;;;12.30;9.65;;;21.70;99.90;;;;;;5082197;28;20111;-87
2023/08/20 05:57:50;;;;;;;15.63;10.27;;;21.70;99.90;;;;;;5058847;28;20020;-87
2023/08/20 06:00:17;;;;;;;20.67;10.55;;;21.60;99.90;;;;;;5075953;28;20559;-86
2023/08/20 06:02:46;;;;;;;13.40;9.57;;;21.50;99.90;;;;;;5061251;28;20478;-87
2023/08/20 06:05:12;;;;;;;16.27;10.65;;;21.50;99.90;;;;;;5083905;28;20028;-86
2023/08/20 06:07:40;;;;;;;15.90;10.05;;;21.50;99.90;;;;;;5061226;28;20116;-87
2023/08/20 06:10:06;;;;;;;15.65;10.20;;;21.40;99.90;;;;;;5076256;28;20127;-87
2023/08/20 06:12:32;;;;;;;13.60;10.07;;;21.40;99.90;;;;;;5071079;28;20403;-87
2023/08/20 06:14:58;;;;;;;16.40;10.27;;;21.40;99.90;;;;;;5073497;28;20117;-87
2023/08/20 06:17:24;;;;;;;16.60;10.27;;;21.50;99.90;;;;;;5076261;28;20051;-87
2023/08/20 06:19:49;;;;;;;11.95;9.13;;;21.50;99.90;;;;;;5062216;28;20005;-87
2023/08/20 06:22:15;;;;;;;18.67;9.98;;;21.60;99.90;;;;;;5078735;28;20387;-87
2023/08/20 06:24:41;;;;;;;12.00;9.52;;;21.70;99.90;;;;;;5074959;28;20031;-87
2023/08/20 06:27:06;;;;;;;15.65;9.60;;;21.70;99.90;;;;;;5062373;28;20029;-87
2023/08/20 06:29:32;;;;;;;17.35;10.63;;;21.80;99.90;;;;;;5074949;28;20097;-86
2023/08/20 06:31:58;;;;;;;12.82;9.40;;;21.80;99.90;;;;;;5056223;28;20024;-87
2023/08/20 06:34:24;;;;;;;12.52;8.98;;;21.90;99.90;;;;;;5075857;28;20032;-87
2023/08/20 06:36:49;;;;;;;13.77;8.75;;;22.00;99.90;;;;;;5079191;28;20480;-87
2023/08/20 06:39:15;;;;;;;14.77;9.93;;;22.20;99.90;;;;;;5077789;28;20039;-87
2023/08/20 06:41:41;;;;;;;13.40;9.38;;;22.40;99.90;;;;;;5062686;28;20535;-87
2023/08/20 06:44:18;;;;;;;12.02;9.07;;;22.70;99.90;;;;;;5067295;28;20505;-88
2023/08/20 06:46:44;;;;;;;13.63;8.98;;;23.10;99.90;;;;;;5063862;28;20111;-88
2023/08/20 06:49:09;;;;;;;13.40;7.72;;;23.50;99.90;;;;;;5061380;28;20035;-87
2023/08/20 06:51:35;;;;;;;13.40;8.48;;;24.10;99.90;;;;;;5073576;28;20536;-87
2023/08/20 06:54:02;;;;;;;11.45;7.50;;;24.40;99.90;;;;;;5079818;28;20031;-87
2023/08/20 06:56:28;;;;;;;10.38;7.50;;;24.80;99.90;;;;;;5083720;28;20020;-87
2023/08/20 06:58:54;;;;;;;15.93;8.23;;;25.20;99.90;;;;;;5064387;28;20028;-87
2023/08/20 07:01:20;;;;;;;13.85;8.02;;;25.40;99.90;;;;;;5060991;28;20021;-87
2023/08/20 07:03:46;;;;;;;14.63;8.43;;;25.60;99.90;;;;;;5085067;28;20118;-87
2023/08/20 07:06:18;;;;;;;11.73;8.05;;;25.80;99.90;;;;;;5064374;28;20497;-87
2023/08/20 07:12:31;;;;;;;11.27;7.45;;;26.10;99.90;;;;;;5078796;28;20082;-88
2023/08/20 07:14:57;;;;;;;16.15;8.50;;;26.40;99.90;;;;;;5062560;28;20383;-87
2023/08/20 07:17:23;;;;;;;10.80;7.70;;;26.60;99.90;;;;;;5061045;28;20048;-87
2023/08/20 07:19:48;;;;;;;12.88;6.70;;;26.80;99.90;;;;;;5065750;28;20074;-87
2023/08/20 07:22:14;;;;;;;12.00;7.47;;;26.90;99.90;;;;;;5061225;28;20028;-88
2023/08/20 07:24:40;;;;;;;9.80;6.82;;;27.00;99.90;;;;;;5067751;28;20388;-88
2023/08/20 07:27:10;;;;;;;10.00;6.90;;;27.10;99.90;;;;;;5080352;28;20028;-87
2023/08/20 07:29:36;;;;;;;10.23;7.27;;;27.10;99.90;;;;;;5077376;28;20475;-88
2023/08/20 07:32:03;;;;;;;8.90;6.55;;;27.20;99.90;;;;;;5064164;28;20071;-87
2023/08/20 07:34:30;;;;;;;9.65;6.97;;;27.10;99.90;;;;;;5062933;28;20028;-87
2023/08/20 07:36:56;;;;;;;9.05;6.82;;;27.20;99.90;;;;;;5065269;28;20018;-87
2023/08/20 07:39:22;;;;;;;10.48;7.35;;;27.40;99.90;;;;;;5071020;28;20028;-87
2023/08/20 07:41:48;;;;;;;19.38;7.80;;;27.60;99.90;;;;;;5058032;28;20025;-88
2023/08/20 07:44:14;;;;;;;6.90;6.20;;;27.60;99.90;;;;;;5084640;28;20034;-87
2023/08/20 07:47:05;;;;;;;11.80;7.30;;;27.90;99.90;;;;;;5058902;28;20024;-88
2023/08/20 07:49:30;;;;;;;15.95;7.93;;;28.10;99.90;;;;;;5066916;28;20507;-88
2023/08/20 07:51:56;;;;;;;10.85;7.15;;;28.10;99.90;;;;;;5063605;28;20032;-87
2023/08/20 07:54:22;;;;;;;12.70;6.85;;;28.30;99.90;;;;;;5060747;28;20032;-87
2023/08/20 07:56:47;;;;;;;11.73;7.20;;;28.40;99.90;;;;;;5081031;28;20035;-88
2023/08/20 07:59:13;;;;;;;12.32;7.28;;;28.40;99.90;;;;;;5063118;28;20086;-87
2023/08/20 08:01:39;;;;;;;13.10;6.63;;;28.40;99.90;;;;;;5061944;28;20056;-88
2023/08/20 08:04:05;;;;;;;9.35;6.75;;;28.50;99.90;;;;;;5060569;28;20047;-88
2023/08/20 08:06:30;;;;;;;8.60;6.85;;;28.60;99.90;;;;;;5082202;28;20031;-88
2023/08/20 08:08:56;;;;;;;9.32;7.32;;;28.70;99.90;;;;;;5061813;28;20024;-87
2023/08/20 08:11:22;;;;;;;10.32;6.40;;;28.70;99.90;;;;;;5068320;28;20103;-87
2023/08/20 08:13:48;;;;;;;12.30;7.22;;;28.60;99.90;;;;;;5079789;28;20021;-87
2023/08/20 08:16:13;;;;;;;7.93;6.90;;;28.70;99.90;;;;;;5077675;28;20550;-88
2023/08/20 08:18:39;;;;;;;11.63;7.28;;;28.70;99.90;;;;;;5064147;28;20035;-88
2023/08/20 08:24:53;;;;;;;9.07;6.07;;;28.60;99.90;;;;;;5071343;28;20105;-88
2023/08/20 08:27:18;;;;;;;11.43;6.38;;;28.50;99.90;;;;;;5064486;28;20032;-88
2023/08/20 08:29:44;;;;;;;8.80;6.18;;;28.40;99.90;;;;;;5061386;28;20376;-87
2023/08/20 08:32:10;;;;;;;10.20;6.85;;;28.50;99.90;;;;;;5065168;28;20029;-88
2023/08/20 08:34:36;;;;;;;8.57;6.40;;;28.50;99.90;;;;;;5080003;28;20093;-87
2023/08/20 08:37:02;;;;;;;12.77;6.50;;;28.60;99.90;;;;;;5055755;28;20025;-88
2023/08/20 08:39:27;;;;;;;9.55;5.95;;;28.50;99.90;;;;;;5065795;28;20043;-88
2023/08/20 08:41:59;;;;;;;10.63;6.50;;;28.10;99.90;;;;;;5057384;28;20476;-87
2023/08/20 08:44:25;;;;;;;10.63;6.03;;;27.80;99.90;;;;;;5068215;28;20035;-88
2023/08/20 08:46:51;;;;;;;10.10;6.18;;;27.60;99.90;;;;;;5078083;28;20028;-88
2023/08/20 08:49:17;;;;;;;9.13;6.55;;;27.50;99.90;;;;;;5078856;28;20024;-88
2023/08/20 08:51:45;;;;;;;11.43;6.63;;;27.20;99.90;;;;;;5062705;28;20029;-88
2023/08/20 08:54:13;;;;;;;15.93;6.60;;;27.20;99.90;;;;;;5063594;28;20380;-88
2023/08/20 08:56:39;;;;;;;9.15;6.53;;;27.20;99.90;;;;;;5078473;28;20108;-87
2023/08/20 08:59:05;;;;;;;9.93;6.25;;;27.30;99.90;;;;;;5077433;28;20052;-89
2023/08/20 09:01:31;;;;;;;9.90;5.97;;;27.50;99.90;;;;;;5064797;28;20476;-88
2023/08/20 09:03:57;;;;;;;12.75;6.05;;;28.10;99.90;;;;;;5078070;28;20025;-88
2023/08/20 09:06:23;;;;;;;10.55;6.15;;;29.80;99.90;;;;;;5083582;28;20045;-88
2023/08/20 09:08:48;;;;;;;11.77;5.22;;;31.20;99.90;;;;;;5079214;28;20435;-89
2023/08/20 09:11:14;;;;;;;6.65;4.75;;;32.40;99.90;;;;;;5060154;28;20024;-88
2023/08/20 09:13:41;;;;;;;10.80;5.40;;;33.40;99.90;;;;;;5064854;28;20016;-88
2023/08/20 09:16:11;;;;;;;42.33;37.97;;;34.10;99.90;;;;;;5063162;28;20475;-89
2023/08/20 09:18:39;;;;;;;12.50;7.05;;;34.90;99.90;;;;;;5076306;28;20028;-88
2023/08/20 09:21:09;;;;;;;7.13;5.43;;;35.70;99.90;;;;;;5063786;28;20154;-89
2023/08/20 09:23:35;;;;;;;7.15;5.15;;;36.40;99.40;;;;;;5060806;28;20021;-89
2023/08/20 09:26:02;;;;;;;9.63;4.68;;;36.90;96.50;;;;;;5083663;28;20073;-88
2023/08/20 09:28:28;;;;;;;7.82;4.65;;;37.40;95.90;;;;;;5069323;28;20024;-88
2023/08/20 09:30:58;;;;;;;8.27;5.00;;;37.60;95.60;;;;;;5061565;28;20021;-88
2023/08/20 09:33:24;;;;;;;6.40;4.97;;;37.10;95.60;;;;;;5070936;28;20042;-89
2023/08/20 09:35:53;;;;;;;9.98;4.55;;;37.00;93.30;;;;;;5078971;28;20099;-89
2023/08/20 09:38:21;;;;;;;6.57;4.65;;;36.60;93.70;;;;;;5088297;28;20031;-89
2023/08/20 09:40:50;;;;;;;6.57;4.75;;;35.30;94.50;;;;;;5061675;28;20036;-90
2023/08/20 09:43:17;;;;;;;10.20;4.45;;;34.70;95.00;;;;;;5064665;28;20071;-89
2023/08/20 09:45:43;;;;;;;9.02;4.70;;;34.60;95.40;;;;;;5058664;28;20133;-89
2023/08/20 09:48:11;;;;;;;9.13;4.55;;;34.50;95.90;;;;;;5057298;28;20096;-89
2023/08/20 09:50:39;;;;;;;11.07;4.95;;;34.50;94.60;;;;;;5068569;28;20384;-88
2023/08/20 09:53:30;;;;;;;8.15;4.60;;;34.60;94.30;;;;;;5060103;28;20028;-89
2023/08/20 09:56:03;;;;;;;8.02;4.50;;;34.10;94.20;;;;;;5068954;28;20032;-89
2023/08/20 09:58:30;;;;;;;9.73;5.10;;;33.20;98.20;;;;;;5073722;28;20397;-88
2023/08/20 10:00:56;;;;;;;11.30;4.88;;;32.40;97.50;;;;;;5075370;28;20016;-89
2023/08/20 10:03:22;;;;;;;7.05;4.82;;;32.30;97.00;;;;;;5067546;28;20036;-89
2023/08/20 10:05:50;;;;;;;7.68;4.22;;;32.00;97.70;;;;;;5057217;28;20382;-90
2023/08/20 10:08:33;;;;;;;5.18;4.18;;;31.90;96.30;;;;;;5055084;28;20025;-89
2023/08/20 10:10:58;;;;;;;9.52;5.40;;;32.00;97.30;;;;;;5051929;28;20025;-89
2023/08/20 10:13:24;;;;;;;4.85;4.28;;;32.00;97.40;;;;;;5059299;28;20041;-89
2023/08/20 10:15:51;;;;;;;6.45;3.90;;;32.20;96.00;;;;;;5076988;28;20032;-89
2023/08/20 10:18:19;;;;;;;9.77;4.88;;;32.70;95.60;;;;;;5058754;28;20052;-88
2023/08/20 10:20:45;;;;;;;7.28;3.97;;;33.10;98.10;;;;;;5052372;28;20025;-89
2023/08/20 10:23:13;;;;;;;10.25;4.85;;;33.10;95.30;;;;;;5074100;28;20030;-89
2023/08/20 10:25:44;;;;;;;6.88;4.35;;;33.30;95.20;;;;;;5075019;28;20039;-89
2023/08/20 10:28:31;;;;;;;10.10;4.32;;;33.70;94.50;;;;;;5075407;28;20040;-88
2023/08/20 10:31:08;;;;;;;6.82;4.35;;;33.90;93.60;;;;;;5067085;28;20098;-89
2023/08/20 10:33:38;;;;;;;6.43;4.43;;;34.40;92.30;;;;;;5054448;28;20502;-89
2023/08/20 10:36:09;;;;;;;6.22;4.25;;;35.10;92.90;;;;;;5075451;28;20433;-89
2023/08/20 10:38:36;;;;;;;5.88;4.60;;;35.30;91.20;;;;;;5057637;28;20036;-90
2023/08/20 10:41:06;;;;;;;7.55;4.13;;;35.40;90.60;;;;;;5057660;28;20032;-89
2023/08/20 10:43:36;;;;;;;9.20;4.10;;;35.10;90.30;;;;;;5058831;28;20404;-89
2023/08/20 10:46:03;;;;;;;4.43;3.92;;;35.00;90.50;;;;;;5072060;28;20028;-89
2023/08/20 10:48:31;;;;;;;6.55;3.78;;;35.10;90.00;;;;;;5074452;28;20028;-89
2023/08/20 10:50:57;;;;;;;9.23;4.10;;;35.00;90.70;;;;;;5057409;28;20067;-89
2023/08/20 10:53:23;;;;;;;6.85;4.13;;;34.80;90.70;;;;;;5057539;28;20056;-88
2023/08/20 10:55:49;;;;;;;5.85;3.53;;;34.50;90.10;;;;;;5056960;28;20025;-89
2023/08/20 10:58:15;;;;;;;8.07;4.28;;;34.30;87.90;;;;;;5074409;28;20025;-89
2023/08/20 11:00:42;;;;;;;7.97;3.92;;;34.10;90.50;;;;;;5056883;28;20028;-88
2023/08/20 11:03:08;;;;;;;12.00;4.13;;;34.40;91.40;;;;;;5073168;28;20379;-89
2023/08/20 11:05:34;;;;;;;11.75;4.07;;;34.20;90.00;;;;;;5057253;28;20036;-89
2023/08/20 11:08:03;;;;;;;6.28;3.72;;;34.20;91.70;;;;;;5073968;28;20434;-89
2023/08/20 11:10:29;;;;;;;7.75;4.47;;;34.20;90.50;;;;;;5061920;28;20025;-89
2023/08/20 11:12:55;;;;;;;5.82;3.70;;;34.70;91.00;;;;;;5073488;28;20115;-90
2023/08/20 11:15:21;;;;;;;9.35;3.80;;;35.00;88.20;;;;;;5056853;28;20132;-89
2023/08/20 11:17:47;;;;;;;5.70;3.60;;;35.30;87.80;;;;;;5057284;28;20032;-89
2023/08/20 11:20:16;;;;;;;8.07;4.35;;;35.80;87.40;;;;;;5070008;28;20021;-90
2023/08/20 11:22:42;;;;;;;6.45;3.58;;;35.70;86.40;;;;;;5058473;28;20038;-89
2023/08/20 11:25:12;;;;;;;7.28;3.70;;;35.40;86.80;;;;;;5079011;28;20032;-89
2023/08/20 11:27:42;;;;;;;5.93;4.13;;;34.90;84.10;;;;;;5068530;28;20394;-89
2023/08/20 11:30:10;;;;;;;9.53;4.50;;;34.70;86.60;;;;;;5062934;28;20071;-89
2023/08/20 11:32:38;;;;;;;6.78;4.03;;;35.00;89.50;;;;;;5061995;28;20032;-89
2023/08/20 11:35:05;;;;;;;7.10;4.10;;;35.80;87.80;;;;;;5080361;28;20031;-90
2023/08/20 11:38:05;;;;;;;9.90;3.83;;;36.30;86.60;;;;;;5080274;28;20024;-89
2023/08/20 11:40:31;;;;;;;;;;;36.70;82.00;;;;;;5076956;28;20024;-89
2023/08/20 11:42:57;;;;;;;9.13;4.32;;;36.70;81.00;;;;;;5081383;28;19919;-89
2023/08/20 11:45:29;;;;;;;7.95;3.83;;;37.20;80.70;;;;;;5061059;28;20031;-90
2023/08/20 11:48:17;;;;;;;8.30;3.95;;;37.20;83.80;;;;;;5066764;28;20036;-90
2023/08/20 11:50:45;;;;;;;8.73;3.63;;;36.70;80.90;;;;;;5066002;28;20042;-90
2023/08/20 11:53:12;;;;;;;7.13;3.88;;;36.60;80.60;;;;;;5059085;28;20028;-89
2023/08/20 11:55:43;;;;;;;7.47;3.53;;;36.30;79.00;;;;;;5068196;28;20039;-89
2023/08/20 11:58:13;;;;;;;4.57;3.85;;;35.80;80.80;;;;;;5064016;28;20440;-90
2023/08/20 12:00:39;;;;;;;5.93;4.00;;;35.10;81.40;;;;;;5077493;28;20384;-88
2023/08/20 12:03:05;;;;;;;6.15;3.97;;;34.40;82.60;;;;;;5079668;28;20020;-89
2023/08/20 12:05:31;;;;;;;8.43;3.75;;;34.60;83.70;;;;;;5063765;28;20032;-91
2023/08/20 12:08:02;;;;;;;10.20;4.13;;;34.50;84.60;;;;;;5077805;28;20036;-89
2023/08/20 12:10:57;;;;;;;6.60;3.90;;;34.40;87.30;;;;;;5077107;28;20033;-89
2023/08/20 12:13:23;;;;;;;10.00;4.13;;;34.50;86.80;;;;;;5061588;28;20474;-90
2023/08/20 12:15:49;;;;;;;6.13;4.03;;;34.60;88.50;;;;;;5058243;28;20478;-89
2023/08/20 12:18:15;;;;;;;8.65;4.50;;;34.60;86.10;;;;;;5065782;28;20162;-89
2023/08/20 12:20:41;;;;;;;6.95;4.35;;;34.30;86.10;;;;;;5046530;28;20028;-88
2023/08/20 12:23:40;;;;;;;9.52;4.38;;;33.90;86.60;;;;;;5054134;28;20028;-88
2023/08/20 12:26:07;;;;;;;7.25;4.43;;;33.50;89.70;;;;;;5072155;28;20354;-89
2023/08/20 12:28:34;;;;;;;6.95;4.20;;;32.60;90.00;;;;;;5061121;28;20039;-89
2023/08/20 12:30:59;;;;;;;10.18;4.72;;;32.40;91.90;;;;;;5073555;28;20028;-89
2023/08/20 12:33:25;;;;;;;7.18;4.50;;;32.30;90.60;;;;;;5053220;28;20032;-89
2023/08/20 12:35:54;;;;;;;13.70;4.60;;;32.20;90.60;;;;;;5055868;28;20037;-89
2023/08/20 12:38:20;;;;;;;8.82;4.75;;;32.40;90.90;;;;;;5073402;28;20012;-88
2023/08/20 12:40:46;;;;;;;7.13;4.43;;;32.50;90.80;;;;;;5054816;28;20094;-89
2023/08/20 12:43:12;;;;;;;9.40;4.65;;;32.60;91.20;;;;;;5073239;28;20379;-89
2023/08/20 12:45:56;;;;;;;5.70;4.53;;;32.80;91.50;;;;;;5056790;28;20102;-90
2023/08/20 12:48:22;;;;;;;8.13;4.93;;;33.00;91.90;;;;;;5084210;28;20043;-88